sensor_id;sensor_type;location;lat;lon;timestamp;P1;durP1;ratioP1;P2;durP2;ratioP2
65375;SDS011;51976;47.332;9.404;2023-04-25T00:01:20;3.38;;;2.30;;
65375;SDS011;51976;47.332;9.404;2023-04-25T00:03:46;5.30;;;2.70;;
65375;SDS011;51976;47.332;9.404;2023-04-25T00:06:12;2.30;;;1.90;;
65375;SDS011;51976;47.332;9.404;2023-04-25T00:08:38;5.43;;;2.50;;
65375;SDS011;51976;47.332;9.404;2023-04-25T00:11:04;4.75;;;2.55;;
65375;SDS011;51976;47.332;9.404;2023-04-25T00:13:29;7.25;;;3.45;;
65375;SDS011;51976;47.332;9.404;2023-04-25T00:15:55;4.47;;;2.60;;
65375;SDS011;51976;47.332;9.404;2023-04-25T00:18:21;4.28;;;2.30;;
65375;SDS011;51976;47.332;9.404;2023-04-25T00:20:47;6.15;;;2.60;;
65375;SDS011;51976;47.332;9.404;2023-04-25T00:23:13;2.67;;;2.33;;
65375;SDS011;51976;47.332;9.404;2023-04-25T00:25:45;2.97;;;2.10;;
65375;SDS011;51976;47.332;9.404;2023-04-25T00:28:14;4.00;;;2.60;;
65375;SDS011;51976;47.332;9.404;2023-04-25T00:30:40;3.80;;;2.50;;
65375;SDS011;51976;47.332;9.404;2023-04-25T00:33:07;3.35;;;2.38;;
65375;SDS011;51976;47.332;9.404;2023-04-25T00:35:33;3.40;;;2.28;;
65375;SDS011;51976;47.332;9.404;2023-04-25T00:37:59;4.50;;;2.45;;
65375;SDS011;51976;47.332;9.404;2023-04-25T00:40:24;5.43;;;2.60;;
65375;SDS011;51976;47.332;9.404;2023-04-25T00:42:51;6.03;;;2.22;;
65375;SDS011;51976;47.332;9.404;2023-04-25T00:45:17;3.38;;;2.55;;
65375;SDS011;51976;47.332;9.404;2023-04-25T00:47:43;6.50;;;2.17;;
65375;SDS011;51976;47.332;9.404;2023-04-25T00:50:10;3.10;;;1.35;;
65375;SDS011;51976;47.332;9.404;2023-04-25T00:52:37;3.13;;;1.40;;
65375;SDS011;51976;47.332;9.404;2023-04-25T00:55:05;5.55;;;1.92;;
65375;SDS011;51976;47.332;9.404;2023-04-25T00:57:32;5.97;;;2.25;;
65375;SDS011;51976;47.332;9.404;2023-04-25T00:59:58;2.00;;;1.30;;
65375;SDS011;51976;47.332;9.404;2023-04-25T01:02:24;3.00;;;1.52;;
65375;SDS011;51976;47.332;9.404;2023-04-25T01:04:51;3.22;;;1.58;;
65375;SDS011;51976;47.332;9.404;2023-04-25T01:07:16;4.55;;;1.48;;
65375;SDS011;51976;47.332;9.404;2023-04-25T01:09:42;8.05;;;1.80;;
65375;SDS011;51976;47.332;9.404;2023-04-25T01:12:07;5.68;;;1.60;;
65375;SDS011;51976;47.332;9.404;2023-04-25T01:14:33;4.35;;;1.80;;
65375;SDS011;51976;47.332;9.404;2023-04-25T01:16:58;6.60;;;1.40;;
65375;SDS011;51976;47.332;9.404;2023-04-25T01:19:24;3.38;;;1.40;;
65375;SDS011;51976;47.332;9.404;2023-04-25T01:21:50;3.85;;;1.60;;
65375;SDS011;51976;47.332;9.404;2023-04-25T01:24:15;2.47;;;1.55;;
65375;SDS011;51976;47.332;9.404;2023-04-25T01:26:42;2.92;;;1.52;;
65375;SDS011;51976;47.332;9.404;2023-04-25T01:29:15;3.58;;;1.52;;
65375;SDS011;51976;47.332;9.404;2023-04-25T01:31:42;5.00;;;1.75;;
65375;SDS011;51976;47.332;9.404;2023-04-25T01:34:08;4.78;;;1.73;;
65375;SDS011;51976;47.332;9.404;2023-04-25T01:36:33;4.55;;;1.60;;
65375;SDS011;51976;47.332;9.404;2023-04-25T01:39:00;4.22;;;2.25;;
65375;SDS011;51976;47.332;9.404;2023-04-25T01:41:25;2.45;;;1.58;;
65375;SDS011;51976;47.332;9.404;2023-04-25T01:43:51;2.53;;;1.80;;
65375;SDS011;51976;47.332;9.404;2023-04-25T01:46:17;3.55;;;2.33;;
65375;SDS011;51976;47.332;9.404;2023-04-25T01:48:43;3.65;;;1.92;;
65375;SDS011;51976;47.332;9.404;2023-04-25T01:51:08;3.38;;;1.60;;
65375;SDS011;51976;47.332;9.404;2023-04-25T01:53:34;3.30;;;1.67;;
65375;SDS011;51976;47.332;9.404;2023-04-25T01:56:00;5.03;;;1.50;;
65375;SDS011;51976;47.332;9.404;2023-04-25T01:58:25;4.28;;;1.63;;
65375;SDS011;51976;47.332;9.404;2023-04-25T02:00:50;7.25;;;1.52;;
65375;SDS011;51976;47.332;9.404;2023-04-25T02:03:16;2.65;;;1.63;;
65375;SDS011;51976;47.332;9.404;2023-04-25T02:05:41;5.28;;;1.60;;
65375;SDS011;51976;47.332;9.404;2023-04-25T02:08:07;5.38;;;1.90;;
65375;SDS011;51976;47.332;9.404;2023-04-25T02:10:34;6.03;;;1.95;;
65375;SDS011;51976;47.332;9.404;2023-04-25T02:13:00;4.65;;;1.83;;
65375;SDS011;51976;47.332;9.404;2023-04-25T02:15:26;3.15;;;1.40;;
65375;SDS011;51976;47.332;9.404;2023-04-25T02:17:51;3.40;;;2.13;;
65375;SDS011;51976;47.332;9.404;2023-04-25T02:20:18;5.20;;;1.95;;
65375;SDS011;51976;47.332;9.404;2023-04-25T02:22:45;6.72;;;1.80;;
65375;SDS011;51976;47.332;9.404;2023-04-25T02:25:10;4.65;;;1.52;;
65375;SDS011;51976;47.332;9.404;2023-04-25T02:27:36;6.70;;;2.17;;
65375;SDS011;51976;47.332;9.404;2023-04-25T02:30:02;3.38;;;1.80;;
65375;SDS011;51976;47.332;9.404;2023-04-25T02:32:27;2.75;;;1.45;;
65375;SDS011;51976;47.332;9.404;2023-04-25T02:34:53;3.72;;;1.67;;
65375;SDS011;51976;47.332;9.404;2023-04-25T02:37:19;3.67;;;1.60;;
65375;SDS011;51976;47.332;9.404;2023-04-25T02:39:44;5.40;;;1.80;;
65375;SDS011;51976;47.332;9.404;2023-04-25T02:42:10;3.10;;;1.40;;
65375;SDS011;51976;47.332;9.404;2023-04-25T02:44:35;5.72;;;1.60;;
65375;SDS011;51976;47.332;9.404;2023-04-25T02:47:01;4.90;;;1.60;;
65375;SDS011;51976;47.332;9.404;2023-04-25T02:49:27;4.18;;;1.60;;
65375;SDS011;51976;47.332;9.404;2023-04-25T02:51:52;3.67;;;1.45;;
65375;SDS011;51976;47.332;9.404;2023-04-25T02:54:18;4.93;;;1.60;;
65375;SDS011;51976;47.332;9.404;2023-04-25T02:56:43;6.57;;;2.03;;
65375;SDS011;51976;47.332;9.404;2023-04-25T02:59:08;3.35;;;1.80;;
65375;SDS011;51976;47.332;9.404;2023-04-25T03:01:34;3.85;;;1.77;;
65375;SDS011;51976;47.332;9.404;2023-04-25T03:03:59;4.28;;;1.63;;
65375;SDS011;51976;47.332;9.404;2023-04-25T03:06:25;3.55;;;1.80;;
65375;SDS011;51976;47.332;9.404;2023-04-25T03:08:50;3.88;;;1.70;;
65375;SDS011;51976;47.332;9.404;2023-04-25T03:11:15;3.90;;;1.50;;
65375;SDS011;51976;47.332;9.404;2023-04-25T03:13:41;4.53;;;1.40;;
65375;SDS011;51976;47.332;9.404;2023-04-25T03:16:06;4.63;;;1.73;;
65375;SDS011;51976;47.332;9.404;2023-04-25T03:18:32;4.80;;;1.50;;
65375;SDS011;51976;47.332;9.404;2023-04-25T03:20:57;4.93;;;1.75;;
65375;SDS011;51976;47.332;9.404;2023-04-25T03:23:23;4.68;;;1.98;;
65375;SDS011;51976;47.332;9.404;2023-04-25T03:25:48;4.95;;;1.90;;
65375;SDS011;51976;47.332;9.404;2023-04-25T03:28:13;2.95;;;2.00;;
65375;SDS011;51976;47.332;9.404;2023-04-25T03:30:39;6.45;;;1.60;;
65375;SDS011;51976;47.332;9.404;2023-04-25T03:33:04;6.00;;;1.70;;
65375;SDS011;51976;47.332;9.404;2023-04-25T03:35:30;3.20;;;1.45;;
65375;SDS011;51976;47.332;9.404;2023-04-25T03:37:55;2.80;;;1.42;;
65375;SDS011;51976;47.332;9.404;2023-04-25T03:40:21;5.28;;;1.40;;
65375;SDS011;51976;47.332;9.404;2023-04-25T03:42:46;3.70;;;1.45;;
65375;SDS011;51976;47.332;9.404;2023-04-25T03:45:12;5.85;;;1.55;;
65375;SDS011;51976;47.332;9.404;2023-04-25T03:47:37;2.65;;;1.40;;
65375;SDS011;51976;47.332;9.404;2023-04-25T03:50:02;5.40;;;1.70;;
65375;SDS011;51976;47.332;9.404;2023-04-25T03:52:28;4.18;;;1.50;;
65375;SDS011;51976;47.332;9.404;2023-04-25T03:54:54;4.88;;;1.42;;
65375;SDS011;51976;47.332;9.404;2023-04-25T03:57:19;6.63;;;1.90;;
65375;SDS011;51976;47.332;9.404;2023-04-25T03:59:44;6.43;;;1.77;;
65375;SDS011;51976;47.332;9.404;2023-04-25T04:02:10;6.90;;;1.90;;
65375;SDS011;51976;47.332;9.404;2023-04-25T04:04:35;2.72;;;1.15;;
65375;SDS011;51976;47.332;9.404;2023-04-25T04:07:01;3.90;;;1.65;;
65375;SDS011;51976;47.332;9.404;2023-04-25T04:09:27;4.00;;;1.60;;
65375;SDS011;51976;47.332;9.404;2023-04-25T04:11:52;2.83;;;1.70;;
65375;SDS011;51976;47.332;9.404;2023-04-25T04:14:18;2.85;;;1.13;;
65375;SDS011;51976;47.332;9.404;2023-04-25T04:16:43;2.75;;;1.42;;
65375;SDS011;51976;47.332;9.404;2023-04-25T04:19:09;5.60;;;1.67;;
65375;SDS011;51976;47.332;9.404;2023-04-25T04:21:37;4.80;;;1.38;;
65375;SDS011;51976;47.332;9.404;2023-04-25T04:24:03;2.20;;;1.63;;
65375;SDS011;51976;47.332;9.404;2023-04-25T04:26:28;4.18;;;1.17;;
65375;SDS011;51976;47.332;9.404;2023-04-25T04:28:54;2.58;;;1.35;;
65375;SDS011;51976;47.332;9.404;2023-04-25T04:31:20;5.75;;;1.95;;
65375;SDS011;51976;47.332;9.404;2023-04-25T04:33:47;3.42;;;1.38;;
65375;SDS011;51976;47.332;9.404;2023-04-25T04:36:13;5.45;;;1.40;;
65375;SDS011;51976;47.332;9.404;2023-04-25T04:38:39;3.92;;;1.60;;
65375;SDS011;51976;47.332;9.404;2023-04-25T04:41:05;2.05;;;1.08;;
65375;SDS011;51976;47.332;9.404;2023-04-25T04:43:30;4.28;;;1.27;;
65375;SDS011;51976;47.332;9.404;2023-04-25T04:45:58;3.10;;;1.23;;
65375;SDS011;51976;47.332;9.404;2023-04-25T04:48:25;4.15;;;1.73;;
65375;SDS011;51976;47.332;9.404;2023-04-25T04:50:51;3.08;;;1.23;;
65375;SDS011;51976;47.332;9.404;2023-04-25T04:53:16;6.93;;;1.35;;
65375;SDS011;51976;47.332;9.404;2023-04-25T04:55:42;5.88;;;1.30;;
65375;SDS011;51976;47.332;9.404;2023-04-25T04:58:07;3.35;;;1.15;;
65375;SDS011;51976;47.332;9.404;2023-04-25T05:00:33;1.92;;;1.05;;
65375;SDS011;51976;47.332;9.404;2023-04-25T05:02:59;3.08;;;0.80;;
65375;SDS011;51976;47.332;9.404;2023-04-25T05:05:24;4.00;;;1.10;;
65375;SDS011;51976;47.332;9.404;2023-04-25T05:07:53;1.85;;;0.77;;
65375;SDS011;51976;47.332;9.404;2023-04-25T05:10:26;1.80;;;0.80;;
65375;SDS011;51976;47.332;9.404;2023-04-25T05:12:52;1.65;;;0.98;;
65375;SDS011;51976;47.332;9.404;2023-04-25T05:15:17;2.25;;;0.90;;
65375;SDS011;51976;47.332;9.404;2023-04-25T05:17:52;2.58;;;0.80;;
65375;SDS011;51976;47.332;9.404;2023-04-25T05:20:17;3.22;;;1.17;;
65375;SDS011;51976;47.332;9.404;2023-04-25T05:22:48;4.13;;;1.55;;
65375;SDS011;51976;47.332;9.404;2023-04-25T05:25:46;2.83;;;0.80;;
65375;SDS011;51976;47.332;9.404;2023-04-25T05:28:15;2.25;;;1.05;;
65375;SDS011;51976;47.332;9.404;2023-04-25T05:30:43;3.45;;;1.27;;
65375;SDS011;51976;47.332;9.404;2023-04-25T05:33:09;3.30;;;1.63;;
65375;SDS011;51976;47.332;9.404;2023-04-25T05:35:34;2.80;;;1.38;;
65375;SDS011;51976;47.332;9.404;2023-04-25T05:38:02;8.02;;;1.75;;
65375;SDS011;51976;47.332;9.404;2023-04-25T05:40:29;3.70;;;1.33;;
65375;SDS011;51976;47.332;9.404;2023-04-25T05:42:54;5.45;;;1.25;;
65375;SDS011;51976;47.332;9.404;2023-04-25T05:45:20;3.22;;;1.23;;
65375;SDS011;51976;47.332;9.404;2023-04-25T05:47:45;5.70;;;1.55;;
65375;SDS011;51976;47.332;9.404;2023-04-25T05:50:12;5.05;;;1.52;;
65375;SDS011;51976;47.332;9.404;2023-04-25T05:52:37;3.35;;;1.73;;
65375;SDS011;51976;47.332;9.404;2023-04-25T05:55:03;5.18;;;2.33;;
65375;SDS011;51976;47.332;9.404;2023-04-25T05:57:32;6.53;;;4.13;;
65375;SDS011;51976;47.332;9.404;2023-04-25T05:59:57;7.20;;;3.22;;
65375;SDS011;51976;47.332;9.404;2023-04-25T06:02:23;12.73;;;5.13;;
65375;SDS011;51976;47.332;9.404;2023-04-25T06:04:49;9.18;;;3.97;;
65375;SDS011;51976;47.332;9.404;2023-04-25T06:07:15;6.07;;;2.88;;
65375;SDS011;51976;47.332;9.404;2023-04-25T06:09:41;8.30;;;3.95;;
65375;SDS011;51976;47.332;9.404;2023-04-25T06:12:06;12.57;;;7.35;;
65375;SDS011;51976;47.332;9.404;2023-04-25T06:14:33;10.88;;;5.80;;
65375;SDS011;51976;47.332;9.404;2023-04-25T06:17:01;10.70;;;5.40;;
65375;SDS011;51976;47.332;9.404;2023-04-25T06:19:32;6.03;;;3.03;;
65375;SDS011;51976;47.332;9.404;2023-04-25T06:21:57;5.18;;;3.17;;
65375;SDS011;51976;47.332;9.404;2023-04-25T06:24:24;4.50;;;2.85;;
65375;SDS011;51976;47.332;9.404;2023-04-25T06:26:49;6.97;;;4.15;;
65375;SDS011;51976;47.332;9.404;2023-04-25T06:29:18;5.63;;;3.05;;
65375;SDS011;51976;47.332;9.404;2023-04-25T06:31:43;8.13;;;3.72;;
65375;SDS011;51976;47.332;9.404;2023-04-25T06:34:09;5.47;;;2.97;;
65375;SDS011;51976;47.332;9.404;2023-04-25T06:36:34;11.50;;;3.67;;
65375;SDS011;51976;47.332;9.404;2023-04-25T06:39:03;7.57;;;2.35;;
65375;SDS011;51976;47.332;9.404;2023-04-25T06:41:28;7.93;;;3.15;;
65375;SDS011;51976;47.332;9.404;2023-04-25T06:43:54;9.20;;;3.15;;
65375;SDS011;51976;47.332;9.404;2023-04-25T06:46:20;6.57;;;2.78;;
65375;SDS011;51976;47.332;9.404;2023-04-25T06:48:45;7.47;;;2.90;;
65375;SDS011;51976;47.332;9.404;2023-04-25T06:51:11;5.05;;;2.70;;
65375;SDS011;51976;47.332;9.404;2023-04-25T06:53:38;9.23;;;2.30;;
65375;SDS011;51976;47.332;9.404;2023-04-25T06:56:03;6.03;;;1.88;;
65375;SDS011;51976;47.332;9.404;2023-04-25T06:58:29;4.07;;;1.20;;
65375;SDS011;51976;47.332;9.404;2023-04-25T07:00:54;3.88;;;1.40;;
65375;SDS011;51976;47.332;9.404;2023-04-25T07:03:20;2.42;;;1.30;;
65375;SDS011;51976;47.332;9.404;2023-04-25T07:05:46;5.20;;;1.27;;
65375;SDS011;51976;47.332;9.404;2023-04-25T07:08:11;3.90;;;1.00;;
65375;SDS011;51976;47.332;9.404;2023-04-25T07:10:37;4.40;;;1.15;;
65375;SDS011;51976;47.332;9.404;2023-04-25T07:13:02;4.65;;;1.33;;
65375;SDS011;51976;47.332;9.404;2023-04-25T07:15:28;2.33;;;1.05;;
65375;SDS011;51976;47.332;9.404;2023-04-25T07:17:53;3.25;;;1.25;;
65375;SDS011;51976;47.332;9.404;2023-04-25T07:20:25;4.22;;;1.67;;
65375;SDS011;51976;47.332;9.404;2023-04-25T07:22:52;4.82;;;1.80;;
65375;SDS011;51976;47.332;9.404;2023-04-25T07:25:18;3.63;;;1.02;;
65375;SDS011;51976;47.332;9.404;2023-04-25T07:27:43;4.50;;;1.33;;
65375;SDS011;51976;47.332;9.404;2023-04-25T07:30:09;2.58;;;1.10;;
65375;SDS011;51976;47.332;9.404;2023-04-25T07:35:53;2.92;;;1.45;;
65375;SDS011;51976;47.332;9.404;2023-04-25T07:38:22;4.70;;;1.33;;
65375;SDS011;51976;47.332;9.404;2023-04-25T07:40:48;10.50;;;3.80;;
65375;SDS011;51976;47.332;9.404;2023-04-25T07:43:16;6.25;;;2.92;;
65375;SDS011;51976;47.332;9.404;2023-04-25T07:45:42;11.43;;;3.33;;
65375;SDS011;51976;47.332;9.404;2023-04-25T07:48:17;5.90;;;2.10;;
65375;SDS011;51976;47.332;9.404;2023-04-25T07:50:45;4.80;;;2.15;;
65375;SDS011;51976;47.332;9.404;2023-04-25T07:53:11;5.10;;;2.55;;
65375;SDS011;51976;47.332;9.404;2023-04-25T07:55:36;6.20;;;3.13;;
65375;SDS011;51976;47.332;9.404;2023-04-25T07:58:05;4.32;;;1.75;;
65375;SDS011;51976;47.332;9.404;2023-04-25T08:00:31;4.82;;;2.97;;
65375;SDS011;51976;47.332;9.404;2023-04-25T08:02:58;9.57;;;2.72;;
65375;SDS011;51976;47.332;9.404;2023-04-25T08:05:23;5.25;;;1.67;;
65375;SDS011;51976;47.332;9.404;2023-04-25T08:07:48;5.20;;;2.63;;
65375;SDS011;51976;47.332;9.404;2023-04-25T08:10:15;5.38;;;2.47;;
65375;SDS011;51976;47.332;9.404;2023-04-25T08:12:48;5.18;;;1.90;;
65375;SDS011;51976;47.332;9.404;2023-04-25T08:15:17;2.50;;;1.20;;
65375;SDS011;51976;47.332;9.404;2023-04-25T08:17:52;5.40;;;1.45;;
65375;SDS011;51976;47.332;9.404;2023-04-25T08:20:27;6.72;;;1.88;;
65375;SDS011;51976;47.332;9.404;2023-04-25T08:23:23;7.43;;;2.47;;
65375;SDS011;51976;47.332;9.404;2023-04-25T08:33:52;9.38;;;4.38;;
65375;SDS011;51976;47.332;9.404;2023-04-25T08:39:09;5.72;;;3.35;;
65375;SDS011;51976;47.332;9.404;2023-04-25T08:41:46;3.65;;;1.80;;
65375;SDS011;51976;47.332;9.404;2023-04-25T08:46:54;7.15;;;3.22;;
65375;SDS011;51976;47.332;9.404;2023-04-25T08:49:45;4.53;;;3.22;;
65375;SDS011;51976;47.332;9.404;2023-04-25T08:55:12;3.67;;;1.67;;
65375;SDS011;51976;47.332;9.404;2023-04-25T08:57:46;3.13;;;1.98;;
65375;SDS011;51976;47.332;9.404;2023-04-25T09:00:17;3.08;;;1.52;;
65375;SDS011;51976;47.332;9.404;2023-04-25T09:02:59;2.92;;;1.27;;
65375;SDS011;51976;47.332;9.404;2023-04-25T09:05:28;5.07;;;2.20;;
65375;SDS011;51976;47.332;9.404;2023-04-25T09:07:56;5.63;;;2.05;;
65375;SDS011;51976;47.332;9.404;2023-04-25T09:11:25;4.93;;;2.53;;
65375;SDS011;51976;47.332;9.404;2023-04-25T09:13:40;6.07;;;2.80;;
65375;SDS011;51976;47.332;9.404;2023-04-25T09:16:11;4.43;;;2.65;;
65375;SDS011;51976;47.332;9.404;2023-04-25T09:18:50;8.00;;;3.38;;
65375;SDS011;51976;47.332;9.404;2023-04-25T09:21:41;2.17;;;1.30;;
65375;SDS011;51976;47.332;9.404;2023-04-25T09:24:07;1.77;;;1.15;;
65375;SDS011;51976;47.332;9.404;2023-04-25T09:26:36;4.20;;;2.35;;
65375;SDS011;51976;47.332;9.404;2023-04-25T09:29:08;2.95;;;1.73;;
65375;SDS011;51976;47.332;9.404;2023-04-25T09:31:37;2.50;;;1.10;;
65375;SDS011;51976;47.332;9.404;2023-04-25T09:34:05;4.32;;;1.92;;
65375;SDS011;51976;47.332;9.404;2023-04-25T09:36:30;1.75;;;0.90;;
65375;SDS011;51976;47.332;9.404;2023-04-25T09:39:02;1.70;;;0.70;;
65375;SDS011;51976;47.332;9.404;2023-04-25T09:42:23;1.10;;;0.60;;
65375;SDS011;51976;47.332;9.404;2023-04-25T09:44:36;3.40;;;1.35;;
65375;SDS011;51976;47.332;9.404;2023-04-25T09:47:11;4.53;;;0.80;;
65375;SDS011;51976;47.332;9.404;2023-04-25T09:49:41;1.85;;;0.82;;
65375;SDS011;51976;47.332;9.404;2023-04-25T09:52:08;1.75;;;1.00;;
65375;SDS011;51976;47.332;9.404;2023-04-25T09:54:37;2.42;;;1.02;;
65375;SDS011;51976;47.332;9.404;2023-04-25T09:57:11;5.15;;;1.20;;
65375;SDS011;51976;47.332;9.404;2023-04-25T09:59:39;2.05;;;1.20;;
65375;SDS011;51976;47.332;9.404;2023-04-25T10:02:08;3.15;;;1.10;;
65375;SDS011;51976;47.332;9.404;2023-04-25T10:04:35;0.82;;;0.50;;
65375;SDS011;51976;47.332;9.404;2023-04-25T10:07:03;2.10;;;0.90;;
65375;SDS011;51976;47.332;9.404;2023-04-25T10:09:31;2.83;;;0.82;;
65375;SDS011;51976;47.332;9.404;2023-04-25T10:12:00;2.17;;;0.90;;
65375;SDS011;51976;47.332;9.404;2023-04-25T10:14:26;5.10;;;0.98;;
65375;SDS011;51976;47.332;9.404;2023-04-25T10:16:53;3.33;;;0.90;;
65375;SDS011;51976;47.332;9.404;2023-04-25T10:19:20;1.48;;;0.82;;
65375;SDS011;51976;47.332;9.404;2023-04-25T10:21:50;4.13;;;0.88;;
65375;SDS011;51976;47.332;9.404;2023-04-25T10:24:20;3.03;;;1.40;;
65375;SDS011;51976;47.332;9.404;2023-04-25T10:26:47;3.35;;;1.48;;
65375;SDS011;51976;47.332;9.404;2023-04-25T10:29:22;2.10;;;1.05;;
65375;SDS011;51976;47.332;9.404;2023-04-25T10:32:11;4.57;;;1.80;;
65375;SDS011;51976;47.332;9.404;2023-04-25T10:34:48;3.25;;;1.15;;
65375;SDS011;51976;47.332;9.404;2023-04-25T10:37:13;1.98;;;1.05;;
65375;SDS011;51976;47.332;9.404;2023-04-25T10:40:07;2.05;;;1.20;;
65375;SDS011;51976;47.332;9.404;2023-04-25T10:45:17;4.38;;;1.73;;
65375;SDS011;51976;47.332;9.404;2023-04-25T10:47:46;5.72;;;3.05;;
65375;SDS011;51976;47.332;9.404;2023-04-25T10:50:13;6.68;;;3.15;;
65375;SDS011;51976;47.332;9.404;2023-04-25T10:52:46;4.70;;;2.70;;
65375;SDS011;51976;47.332;9.404;2023-04-25T10:55:14;6.45;;;3.10;;
65375;SDS011;51976;47.332;9.404;2023-04-25T10:57:40;4.75;;;3.20;;
65375;SDS011;51976;47.332;9.404;2023-04-25T11:00:13;5.88;;;2.50;;
65375;SDS011;51976;47.332;9.404;2023-04-25T11:02:41;6.40;;;3.53;;
65375;SDS011;51976;47.332;9.404;2023-04-25T11:05:20;6.72;;;3.25;;
65375;SDS011;51976;47.332;9.404;2023-04-25T11:07:56;6.45;;;3.10;;
65375;SDS011;51976;47.332;9.404;2023-04-25T11:10:26;4.35;;;1.98;;
65375;SDS011;51976;47.332;9.404;2023-04-25T11:12:53;5.05;;;2.65;;
65375;SDS011;51976;47.332;9.404;2023-04-25T11:15:19;4.45;;;1.75;;
65375;SDS011;51976;47.332;9.404;2023-04-25T11:17:47;6.22;;;3.38;;
65375;SDS011;51976;47.332;9.404;2023-04-25T11:20:15;7.65;;;3.78;;
65375;SDS011;51976;47.332;9.404;2023-04-25T11:22:53;4.55;;;2.45;;
65375;SDS011;51976;47.332;9.404;2023-04-25T11:25:38;3.85;;;2.20;;
65375;SDS011;51976;47.332;9.404;2023-04-25T11:28:12;3.15;;;0.88;;
65375;SDS011;51976;47.332;9.404;2023-04-25T11:30:37;5.75;;;2.38;;
65375;SDS011;51976;47.332;9.404;2023-04-25T11:33:05;2.17;;;1.02;;
65375;SDS011;51976;47.332;9.404;2023-04-25T11:35:39;2.47;;;0.65;;
65375;SDS011;51976;47.332;9.404;2023-04-25T11:38:15;1.98;;;1.20;;
65375;SDS011;51976;47.332;9.404;2023-04-25T11:40:50;3.00;;;1.02;;
65375;SDS011;51976;47.332;9.404;2023-04-25T11:43:17;2.45;;;1.58;;
65375;SDS011;51976;47.332;9.404;2023-04-25T11:45:48;3.40;;;1.23;;
65375;SDS011;51976;47.332;9.404;2023-04-25T11:48:14;1.30;;;0.88;;
65375;SDS011;51976;47.332;9.404;2023-04-25T11:50:40;3.13;;;2.00;;
65375;SDS011;51976;47.332;9.404;2023-04-25T11:53:05;1.58;;;0.70;;
65375;SDS011;51976;47.332;9.404;2023-04-25T11:55:32;4.80;;;1.75;;
65375;SDS011;51976;47.332;9.404;2023-04-25T11:57:59;1.58;;;0.50;;
65375;SDS011;51976;47.332;9.404;2023-04-25T12:00:25;3.03;;;1.40;;
65375;SDS011;51976;47.332;9.404;2023-04-25T12:02:52;2.60;;;1.52;;
65375;SDS011;51976;47.332;9.404;2023-04-25T12:05:19;1.85;;;1.10;;
65375;SDS011;51976;47.332;9.404;2023-04-25T12:07:45;1.83;;;0.60;;
65375;SDS011;51976;47.332;9.404;2023-04-25T12:10:12;2.95;;;1.58;;
65375;SDS011;51976;47.332;9.404;2023-04-25T12:12:42;4.95;;;2.15;;
65375;SDS011;51976;47.332;9.404;2023-04-25T12:15:13;3.83;;;1.65;;
65375;SDS011;51976;47.332;9.404;2023-04-25T12:17:41;5.63;;;3.13;;
65375;SDS011;51976;47.332;9.404;2023-04-25T12:20:10;4.13;;;2.65;;
65375;SDS011;51976;47.332;9.404;2023-04-25T12:22:44;3.20;;;1.27;;
65375;SDS011;51976;47.332;9.404;2023-04-25T12:25:10;3.22;;;1.52;;
65375;SDS011;51976;47.332;9.404;2023-04-25T12:27:37;3.70;;;1.80;;
65375;SDS011;51976;47.332;9.404;2023-04-25T12:30:07;2.67;;;1.80;;
65375;SDS011;51976;47.332;9.404;2023-04-25T12:32:32;1.70;;;0.50;;
65375;SDS011;51976;47.332;9.404;2023-04-25T12:34:58;2.20;;;1.20;;
65375;SDS011;51976;47.332;9.404;2023-04-25T12:37:23;3.63;;;1.60;;
65375;SDS011;51976;47.332;9.404;2023-04-25T12:39:49;1.88;;;0.80;;
65375;SDS011;51976;47.332;9.404;2023-04-25T12:42:15;1.98;;;0.98;;
65375;SDS011;51976;47.332;9.404;2023-04-25T12:44:41;2.28;;;1.58;;
65375;SDS011;51976;47.332;9.404;2023-04-25T12:47:06;2.60;;;1.45;;
65375;SDS011;51976;47.332;9.404;2023-04-25T12:49:32;2.00;;;1.17;;
65375;SDS011;51976;47.332;9.404;2023-04-25T12:51:57;5.40;;;3.45;;
65375;SDS011;51976;47.332;9.404;2023-04-25T12:54:23;4.43;;;2.90;;
65375;SDS011;51976;47.332;9.404;2023-04-25T12:56:49;11.07;;;5.95;;
65375;SDS011;51976;47.332;9.404;2023-04-25T12:59:16;6.15;;;3.38;;
65375;SDS011;51976;47.332;9.404;2023-04-25T13:01:41;4.78;;;2.75;;
65375;SDS011;51976;47.332;9.404;2023-04-25T13:04:07;2.50;;;1.70;;
65375;SDS011;51976;47.332;9.404;2023-04-25T13:06:33;4.97;;;1.60;;
65375;SDS011;51976;47.332;9.404;2023-04-25T13:09:01;2.03;;;0.60;;
65375;SDS011;51976;47.332;9.404;2023-04-25T13:11:33;1.65;;;0.60;;
65375;SDS011;51976;47.332;9.404;2023-04-25T13:13:58;1.33;;;0.40;;
65375;SDS011;51976;47.332;9.404;2023-04-25T13:16:24;1.60;;;0.40;;
65375;SDS011;51976;47.332;9.404;2023-04-25T13:19:09;1.53;;;0.60;;
65375;SDS011;51976;47.332;9.404;2023-04-25T13:21:36;1.17;;;0.50;;
65375;SDS011;51976;47.332;9.404;2023-04-25T13:24:06;2.95;;;0.52;;
65375;SDS011;51976;47.332;9.404;2023-04-25T13:26:32;3.15;;;0.40;;
65375;SDS011;51976;47.332;9.404;2023-04-25T13:29:00;1.45;;;0.40;;
65375;SDS011;51976;47.332;9.404;2023-04-25T13:31:40;3.33;;;0.65;;
65375;SDS011;51976;47.332;9.404;2023-04-25T13:55:49;1.00;;;0.60;;
65375;SDS011;51976;47.332;9.404;2023-04-25T14:19:33;3.72;;;1.67;;
65375;SDS011;51976;47.332;9.404;2023-04-25T14:22:10;6.63;;;3.75;;
65375;SDS011;51976;47.332;9.404;2023-04-25T14:24:40;3.78;;;1.42;;
65375;SDS011;51976;47.332;9.404;2023-04-25T14:27:11;4.38;;;1.88;;
65375;SDS011;51976;47.332;9.404;2023-04-25T14:29:37;2.38;;;1.38;;
65375;SDS011;51976;47.332;9.404;2023-04-25T14:32:04;2.10;;;1.17;;
65375;SDS011;51976;47.332;9.404;2023-04-25T14:34:35;6.00;;;3.58;;
65375;SDS011;51976;47.332;9.404;2023-04-25T14:37:01;4.05;;;2.30;;
65375;SDS011;51976;47.332;9.404;2023-04-25T14:39:30;3.75;;;1.85;;
65375;SDS011;51976;47.332;9.404;2023-04-25T14:41:57;4.40;;;2.63;;
65375;SDS011;51976;47.332;9.404;2023-04-25T14:44:26;3.63;;;1.70;;
65375;SDS011;51976;47.332;9.404;2023-04-25T14:47:32;2.25;;;1.10;;
65375;SDS011;51976;47.332;9.404;2023-04-25T14:49:58;3.33;;;1.75;;
65375;SDS011;51976;47.332;9.404;2023-04-25T14:52:24;0.90;;;0.60;;
65375;SDS011;51976;47.332;9.404;2023-04-25T14:54:52;2.05;;;1.23;;
65375;SDS011;51976;47.332;9.404;2023-04-25T14:57:22;4.47;;;1.98;;
65375;SDS011;51976;47.332;9.404;2023-04-25T14:59:50;3.15;;;1.60;;
65375;SDS011;51976;47.332;9.404;2023-04-25T15:02:16;4.25;;;1.70;;
65375;SDS011;51976;47.332;9.404;2023-04-25T15:04:41;4.03;;;1.45;;
65375;SDS011;51976;47.332;9.404;2023-04-25T15:07:07;2.47;;;1.10;;
65375;SDS011;51976;47.332;9.404;2023-04-25T15:09:33;2.25;;;0.93;;
65375;SDS011;51976;47.332;9.404;2023-04-25T15:11:59;2.38;;;1.20;;
65375;SDS011;51976;47.332;9.404;2023-04-25T15:14:27;2.47;;;1.00;;
65375;SDS011;51976;47.332;9.404;2023-04-25T15:16:53;1.77;;;0.90;;
65375;SDS011;51976;47.332;9.404;2023-04-25T15:19:19;1.92;;;0.90;;
65375;SDS011;51976;47.332;9.404;2023-04-25T15:21:45;3.85;;;1.20;;
65375;SDS011;51976;47.332;9.404;2023-04-25T15:24:10;4.00;;;1.40;;
65375;SDS011;51976;47.332;9.404;2023-04-25T15:26:40;1.70;;;0.90;;
65375;SDS011;51976;47.332;9.404;2023-04-25T15:29:05;1.40;;;0.70;;
65375;SDS011;51976;47.332;9.404;2023-04-25T15:31:31;4.03;;;1.00;;
65375;SDS011;51976;47.332;9.404;2023-04-25T15:33:57;4.43;;;1.50;;
65375;SDS011;51976;47.332;9.404;2023-04-25T15:36:22;2.72;;;0.93;;
65375;SDS011;51976;47.332;9.404;2023-04-25T15:38:47;1.88;;;0.90;;
65375;SDS011;51976;47.332;9.404;2023-04-25T15:41:13;1.95;;;0.85;;
65375;SDS011;51976;47.332;9.404;2023-04-25T15:43:38;1.58;;;0.70;;
65375;SDS011;51976;47.332;9.404;2023-04-25T15:46:04;0.77;;;0.40;;
65375;SDS011;51976;47.332;9.404;2023-04-25T15:48:30;1.10;;;0.60;;
65375;SDS011;51976;47.332;9.404;2023-04-25T15:50:56;2.45;;;0.60;;
65375;SDS011;51976;47.332;9.404;2023-04-25T15:53:22;3.00;;;1.15;;
65375;SDS011;51976;47.332;9.404;2023-04-25T15:55:47;2.45;;;1.13;;
65375;SDS011;51976;47.332;9.404;2023-04-25T15:58:13;2.15;;;0.70;;